createdAt,value
2018-12-21T00:00:40.015Z,80.05
2018-12-21T00:01:39.997Z,80.24
2018-12-21T00:02:39.973Z,79.39
2018-12-21T00:03:39.947Z,80.24
2018-12-21T00:04:39.945Z,80.34
2018-12-21T00:05:39.902Z,81.20
2018-12-21T00:06:39.883Z,80.72
2018-12-21T00:07:39.890Z,81.20
2018-12-21T00:08:39.834Z,80.82
2018-12-21T00:09:39.822Z,81.38
2018-12-21T00:10:39.802Z,81.38
2018-12-21T00:11:39.773Z,82.71
2018-12-21T00:12:39.748Z,82.71
2018-12-21T00:13:39.723Z,83.39
2018-12-21T00:14:39.705Z,83.29
2018-12-21T00:15:39.692Z,83.00
2018-12-21T00:16:39.655Z,83.39
2018-12-21T00:17:39.654Z,84.62
2018-12-21T00:18:39.617Z,84.24
2018-12-21T00:19:39.630Z,84.14
2018-12-21T00:20:39.596Z,85.28
2018-12-21T00:21:39.569Z,84.24
2018-12-21T00:22:39.589Z,84.52
2018-12-21T00:23:39.544Z,85.86
2018-12-21T00:24:39.482Z,86.05
2018-12-21T00:25:39.477Z,86.43
2018-12-21T00:26:39.529Z,87.09
2018-12-21T00:27:39.448Z,87.52
2018-12-21T00:28:39.423Z,88.04
2018-12-21T00:29:39.368Z,87.57
2018-12-21T00:30:39.352Z,88.71
2018-12-21T00:31:39.323Z,88.71
2018-12-21T00:32:39.306Z,88.46
2018-12-21T00:33:39.320Z,88.33
2018-12-21T00:34:39.312Z,89.66
2018-12-21T00:35:39.237Z,89.85
2018-12-21T00:36:39.218Z,90.08
2018-12-21T00:37:39.186Z,89.56
2018-12-21T00:38:39.168Z,90.70
2018-12-21T00:39:39.143Z,90.99
2018-12-21T00:40:39.129Z,91.89
2018-12-21T00:41:39.114Z,91.89
2018-12-21T00:42:39.075Z,93.04
2018-12-21T00:43:39.056Z,93.18
2018-12-21T00:44:39.032Z,93.32
2018-12-21T00:45:39.043Z,93.79
2018-12-21T00:46:38.992Z,94.18
2018-12-21T00:47:38.996Z,94.37
2018-12-21T00:48:39.054Z,93.79
2018-12-21T00:49:38.979Z,93.84
2018-12-21T00:50:38.902Z,93.18
2018-12-21T00:51:38.933Z,94.32
2018-12-21T00:52:38.873Z,94.65
2018-12-21T00:53:38.865Z,94.51
2018-12-21T00:54:38.808Z,96.46
2018-12-21T00:55:38.803Z,95.89
2018-12-21T00:56:38.863Z,96.08
2018-12-21T00:57:38.738Z,95.98
2018-12-21T00:58:38.731Z,96.22
2018-12-21T00:59:38.715Z,96.46
2018-12-21T01:00:38.681Z,96.03
2018-12-21T01:01:38.653Z,96.84
2018-12-21T01:02:38.631Z,96.65
2018-12-21T01:03:38.643Z,96.12
2018-12-21T01:04:38.601Z,96.74
2018-12-21T01:05:38.587Z,97.22
2018-12-21T01:06:38.551Z,97.22
2018-12-21T01:07:38.522Z,97.88
2018-12-21T01:08:38.750Z,98.74
2018-12-21T01:09:38.496Z,98.83
2018-12-21T01:10:38.454Z,98.83
2018-12-21T01:11:38.430Z,98.08
2018-12-21T01:12:38.432Z,97.41
2018-12-21T01:13:38.387Z,97.88
2018-12-21T01:14:38.366Z,98.93
2018-12-21T01:15:38.344Z,98.74
2018-12-21T01:16:38.321Z,99.02
2018-12-21T01:17:38.326Z,99.69
2018-12-21T01:18:38.273Z,99.50
2018-12-21T01:19:38.266Z,99.99
2018-12-21T01:20:38.237Z,99.99
2018-12-21T01:21:38.880Z,99.99
2018-12-21T01:22:38.193Z,99.99
2018-12-21T01:23:38.161Z,99.99
2018-12-21T01:24:38.143Z,99.99
2018-12-21T01:25:38.120Z,99.99
2018-12-21T01:26:38.100Z,99.99
2018-12-21T01:27:38.085Z,99.99
2018-12-21T01:28:38.051Z,99.99
2018-12-21T01:29:38.033Z,99.99
2018-12-21T01:30:38.009Z,99.99
2018-12-21T01:31:37.985Z,99.99
2018-12-21T01:32:37.968Z,99.99
2018-12-21T01:33:37.936Z,99.99
2018-12-21T01:34:37.927Z,99.99
2018-12-21T01:35:37.922Z,99.99
2018-12-21T01:36:37.879Z,99.99
2018-12-21T01:37:37.856Z,99.99
2018-12-21T01:38:37.842Z,99.99
2018-12-21T01:39:37.808Z,99.99
2018-12-21T01:40:37.791Z,99.99
2018-12-21T01:41:37.782Z,99.99
2018-12-21T01:42:37.748Z,99.99
2018-12-21T01:43:37.719Z,99.99
2018-12-21T01:44:37.725Z,99.99
2018-12-21T01:45:37.682Z,99.99
2018-12-21T01:46:37.657Z,99.99
2018-12-21T01:47:37.645Z,99.99
2018-12-21T01:48:37.645Z,99.99
2018-12-21T01:49:37.592Z,99.99
2018-12-21T01:50:37.603Z,99.99
2018-12-21T01:51:37.541Z,99.99
2018-12-21T01:52:37.524Z,99.99
2018-12-21T01:53:37.501Z,99.99
2018-12-21T01:54:37.493Z,99.99
2018-12-21T01:55:37.461Z,99.99
2018-12-21T01:56:37.433Z,99.99
2018-12-21T01:57:37.418Z,99.99
2018-12-21T01:58:37.420Z,99.99
2018-12-21T01:59:37.367Z,99.99
2018-12-21T02:00:37.375Z,99.99
2018-12-21T02:01:37.335Z,99.99
2018-12-21T02:02:37.317Z,99.99
2018-12-21T02:03:37.285Z,99.99
2018-12-21T02:04:37.264Z,99.99
2018-12-21T02:05:37.241Z,99.99
2018-12-21T02:06:37.247Z,99.99
2018-12-21T02:07:37.197Z,99.99
2018-12-21T02:08:37.200Z,99.99
2018-12-21T02:09:37.154Z,99.99
2018-12-21T02:10:37.132Z,99.99
2018-12-21T02:11:37.105Z,99.99
2018-12-21T02:12:37.081Z,99.99
2018-12-21T02:13:37.066Z,99.99
2018-12-21T02:14:37.044Z,99.99
2018-12-21T02:15:37.036Z,99.99
2018-12-21T02:16:36.992Z,99.99
2018-12-21T02:17:36.972Z,99.99
2018-12-21T02:18:36.985Z,99.99
2018-12-21T02:19:36.956Z,99.99
2018-12-21T02:20:36.939Z,99.99
2018-12-21T02:21:36.883Z,99.99
2018-12-21T02:22:36.871Z,99.99
2018-12-21T02:23:36.841Z,99.99
2018-12-21T02:24:36.815Z,99.99
2018-12-21T02:25:36.798Z,99.99
2018-12-21T02:26:36.789Z,99.99
2018-12-21T02:27:36.792Z,99.99
2018-12-21T02:28:36.730Z,99.99
2018-12-21T02:29:36.708Z,99.99
2018-12-21T02:30:36.688Z,99.99
2018-12-21T02:31:36.667Z,99.99
2018-12-21T02:32:36.645Z,99.99
2018-12-21T02:33:36.619Z,99.99
2018-12-21T02:34:36.610Z,99.99
2018-12-21T02:35:36.613Z,99.99
2018-12-21T02:36:36.563Z,99.99
2018-12-21T02:37:36.552Z,99.99
2018-12-21T02:38:36.509Z,99.99
2018-12-21T02:39:36.483Z,99.99
2018-12-21T02:40:36.475Z,99.99
2018-12-21T02:41:36.437Z,99.99
2018-12-21T02:42:36.426Z,99.99
2018-12-21T02:43:36.419Z,99.99
2018-12-21T02:44:36.378Z,99.99
2018-12-21T02:45:36.353Z,99.99
2018-12-21T02:46:36.337Z,99.99
2018-12-21T02:47:36.314Z,99.99
2018-12-21T02:48:36.306Z,99.99
2018-12-21T02:49:36.269Z,99.99
2018-12-21T02:50:36.242Z,99.99
2018-12-21T02:51:36.222Z,99.99
2018-12-21T02:52:36.226Z,99.99
2018-12-21T02:53:36.178Z,99.99
2018-12-21T02:54:36.157Z,99.99
2018-12-21T02:55:36.161Z,99.99
2018-12-21T02:56:36.117Z,99.99
2018-12-21T02:57:36.088Z,99.99
2018-12-21T02:58:36.065Z,99.99
2018-12-21T02:59:36.068Z,99.99
2018-12-21T03:00:36.023Z,99.99
2018-12-21T03:01:36.047Z,99.99
2018-12-21T03:02:35.986Z,99.99
2018-12-21T03:03:35.984Z,99.99
2018-12-21T03:04:36.025Z,99.99
2018-12-21T03:05:35.915Z,99.99
2018-12-21T03:06:35.896Z,99.99
2018-12-21T03:07:35.871Z,99.99
2018-12-21T03:08:35.847Z,99.99
2018-12-21T03:09:35.821Z,99.99
2018-12-21T03:10:35.801Z,99.99
2018-12-21T03:11:35.781Z,99.99
2018-12-21T03:12:35.784Z,99.99
2018-12-21T03:13:35.739Z,99.99
2018-12-21T03:14:35.737Z,99.99
2018-12-21T03:15:35.692Z,99.99
2018-12-21T03:16:35.669Z,99.99
2018-12-21T03:17:35.641Z,99.99
2018-12-21T03:18:35.630Z,99.99
2018-12-21T03:19:35.672Z,99.99
2018-12-21T03:20:35.593Z,99.99
2018-12-21T03:21:35.559Z,99.99
2018-12-21T03:22:35.549Z,99.99
2018-12-21T03:23:35.519Z,99.99
2018-12-21T03:24:35.495Z,99.99
2018-12-21T03:25:35.464Z,99.99
2018-12-21T03:26:35.449Z,99.99
2018-12-21T03:27:35.433Z,99.99
2018-12-21T03:28:35.420Z,99.99
2018-12-21T03:29:35.390Z,99.99
2018-12-21T03:30:35.363Z,99.99
2018-12-21T03:31:35.336Z,99.99
2018-12-21T03:32:35.324Z,99.99
2018-12-21T03:33:35.297Z,99.99
2018-12-21T03:34:35.268Z,99.99
2018-12-21T03:35:35.265Z,99.99
2018-12-21T03:36:35.228Z,99.99
2018-12-21T03:37:35.215Z,99.99
2018-12-21T03:38:35.178Z,99.99
2018-12-21T03:39:35.163Z,99.99
2018-12-21T03:40:35.137Z,99.99
2018-12-21T03:41:35.117Z,99.74
2018-12-21T03:42:35.090Z,99.45
2018-12-21T03:43:35.073Z,98.41
2018-12-21T03:44:35.055Z,97.36
2018-12-21T03:45:35.062Z,96.89
2018-12-21T03:46:35.006Z,95.94
2018-12-21T03:47:34.987Z,95.08
2018-12-21T03:48:34.961Z,93.55
2018-12-21T03:49:34.964Z,92.03
2018-12-21T03:50:34.916Z,90.61
2018-12-21T03:51:34.905Z,89.75
2018-12-21T03:52:34.880Z,88.23
2018-12-21T03:53:34.890Z,86.99
2018-12-21T03:54:34.873Z,85.86
2018-12-21T03:55:34.818Z,84.62
2018-12-21T03:56:34.790Z,83.29
2018-12-21T03:57:34.806Z,82.62
2018-12-21T03:58:34.811Z,81.20
2018-12-21T03:59:34.773Z,80.05
2018-12-21T04:00:34.709Z,78.53
2018-12-21T04:01:34.681Z,77.87
2018-12-21T04:02:34.653Z,76.82
2018-12-21T04:03:34.636Z,76.25
2018-12-21T04:04:34.629Z,75.59
2018-12-21T04:05:34.609Z,74.22
2018-12-21T04:06:34.593Z,74.12
2018-12-21T04:07:34.538Z,73.02
2018-12-21T04:08:34.535Z,72.83
2018-12-21T04:09:34.504Z,72.60
2018-12-21T04:10:34.474Z,72.07
2018-12-21T04:11:34.460Z,72.03
2018-12-21T04:12:34.434Z,71.84
2018-12-21T04:13:34.412Z,71.69
2018-12-21T04:14:34.392Z,71.46
2018-12-21T04:15:34.365Z,71.59
2018-12-21T04:16:34.346Z,71.18
2018-12-21T04:17:34.322Z,71.08
2018-12-21T04:18:34.297Z,71.08
2018-12-21T04:19:34.282Z,70.89
2018-12-21T04:20:34.269Z,71.27
2018-12-21T04:21:34.243Z,71.46
2018-12-21T04:22:34.692Z,72.26
2018-12-21T04:23:34.193Z,72.64
2018-12-21T04:24:34.178Z,72.70
2018-12-21T04:25:34.147Z,72.83
2018-12-21T04:26:34.120Z,75.21
2018-12-21T04:27:34.131Z,75.78
2018-12-21T04:28:34.077Z,75.78
2018-12-21T04:29:34.167Z,76.92
2018-12-21T04:30:34.084Z,77.97
2018-12-21T04:31:34.069Z,79.11
2018-12-21T04:32:33.991Z,78.63
2018-12-21T04:33:33.965Z,78.63
2018-12-21T04:34:33.973Z,80.05
2018-12-21T04:35:33.969Z,80.05
2018-12-21T04:36:33.913Z,80.15
2018-12-21T04:37:33.887Z,79.58
2018-12-21T04:38:33.887Z,78.25
2018-12-21T04:39:33.834Z,77.87
2018-12-21T04:40:33.832Z,76.82
2018-12-21T04:41:33.816Z,76.25
2018-12-21T04:42:33.826Z,75.02
2018-12-21T04:43:33.770Z,74.44
2018-12-21T04:44:33.731Z,73.78
2018-12-21T04:45:33.700Z,73.21
2018-12-21T04:46:33.693Z,72.64
2018-12-21T04:47:33.653Z,72.45
2018-12-21T04:48:33.633Z,71.78
2018-12-21T04:49:33.609Z,71.50
2018-12-21T04:50:33.592Z,70.93
2018-12-21T04:51:33.570Z,70.07
2018-12-21T04:52:33.544Z,69.88
2018-12-21T04:53:33.519Z,69.79
2018-12-21T04:54:33.502Z,68.65
2018-12-21T04:55:33.478Z,67.79
2018-12-21T04:56:33.456Z,67.88
2018-12-21T04:57:33.434Z,66.74
2018-12-21T04:58:33.411Z,66.46
2018-12-21T04:59:33.396Z,65.22
2018-12-21T05:00:33.384Z,64.18
2018-12-21T05:01:33.372Z,63.32
2018-12-21T05:02:33.325Z,61.90
2018-12-21T05:03:33.344Z,61.01
2018-12-21T05:04:33.275Z,59.99
2018-12-21T05:05:33.259Z,59.30
2018-12-21T05:06:33.249Z,58.25
2018-12-21T05:07:33.234Z,57.30
2018-12-21T05:08:33.245Z,56.45
2018-12-21T05:09:33.174Z,55.78
2018-12-21T05:10:33.142Z,55.02
2018-12-21T05:11:33.121Z,54.57
2018-12-21T05:12:33.108Z,54.55
2018-12-21T05:13:33.114Z,53.81
2018-12-21T05:14:33.051Z,53.12
2018-12-21T05:15:33.054Z,52.36
2018-12-21T05:16:33.009Z,52.08
2018-12-21T05:17:33.017Z,51.41
2018-12-21T05:18:32.965Z,51.03
2018-12-21T05:19:32.935Z,50.84
2018-12-21T05:20:32.929Z,50.46
2018-12-21T05:21:32.898Z,49.89
2018-12-21T05:22:32.896Z,49.70
2018-12-21T05:23:32.854Z,49.32
2018-12-21T05:24:32.849Z,49.41
2018-12-21T05:25:32.800Z,49.13
2018-12-21T05:26:32.808Z,48.46
2018-12-21T05:27:32.799Z,48.37
2018-12-21T05:28:32.739Z,48.08
2018-12-21T05:29:32.723Z,48.18
2018-12-21T05:30:32.686Z,47.71
2018-12-21T05:31:32.705Z,47.61
2018-12-21T05:32:32.654Z,47.04
2018-12-21T05:33:32.660Z,46.94
2018-12-21T05:34:32.638Z,46.47
2018-12-21T05:35:32.699Z,46.85
2018-12-21T05:36:32.583Z,46.37
2018-12-21T05:37:32.533Z,46.09
2018-12-21T05:38:32.511Z,46.59
2018-12-21T05:39:32.489Z,45.90
2018-12-21T05:40:32.467Z,45.90
2018-12-21T05:41:32.448Z,45.90
2018-12-21T05:42:32.421Z,45.64
2018-12-21T05:43:32.412Z,45.33
2018-12-21T05:44:32.378Z,45.23
2018-12-21T05:45:32.375Z,44.85
2018-12-21T05:46:32.330Z,45.04
2018-12-21T05:47:32.340Z,45.04
2018-12-21T05:48:32.302Z,44.40
2018-12-21T05:49:32.323Z,44.57
2018-12-21T05:50:32.268Z,44.19
2018-12-21T05:51:32.239Z,43.80
2018-12-21T05:52:32.300Z,44.09
2018-12-21T05:53:32.173Z,43.62
2018-12-21T05:54:32.167Z,43.83
2018-12-21T05:55:32.222Z,43.90
2018-12-21T05:56:32.106Z,43.05
2018-12-21T05:57:32.080Z,43.71
2018-12-21T05:58:32.056Z,42.86
2018-12-21T05:59:32.034Z,42.79
2018-12-21T06:00:32.018Z,42.67
2018-12-21T06:01:32.061Z,42.86
2018-12-21T06:02:31.972Z,42.40
2018-12-21T06:03:31.977Z,42.38
2018-12-21T06:04:31.941Z,42.21
2018-12-21T06:05:31.935Z,42.00
2018-12-21T06:06:32.002Z,41.81
2018-12-21T06:07:33.888Z,41.81
2018-12-21T06:08:31.849Z,41.46
2018-12-21T06:09:31.829Z,41.24
2018-12-21T06:10:31.812Z,41.36
2018-12-21T06:11:31.822Z,41.46
2018-12-21T06:12:31.802Z,41.36
2018-12-21T06:13:31.724Z,41.07
2018-12-21T06:14:31.732Z,40.69
2018-12-21T06:15:31.690Z,40.79
2018-12-21T06:16:31.649Z,40.59
2018-12-21T06:17:31.626Z,40.79
2018-12-21T06:18:31.610Z,40.79
2018-12-21T06:19:31.583Z,40.41
2018-12-21T06:20:31.565Z,40.41
2018-12-21T06:21:31.605Z,40.31
2018-12-21T06:22:31.529Z,40.12
2018-12-21T06:23:31.502Z,39.65
2018-12-21T06:24:31.467Z,39.93
2018-12-21T06:25:31.467Z,39.55
2018-12-21T06:26:31.428Z,39.65
2018-12-21T06:27:31.511Z,39.45
2018-12-21T06:28:31.408Z,39.17
2018-12-21T06:29:31.371Z,39.26
2018-12-21T06:30:31.369Z,39.26
2018-12-21T06:31:31.314Z,38.79
2018-12-21T06:32:31.304Z,38.89
2018-12-21T06:33:31.275Z,38.70
2018-12-21T06:34:31.246Z,38.51
2018-12-21T06:35:39.882Z,38.60
2018-12-21T06:36:31.241Z,38.51
2018-12-21T06:37:31.189Z,38.70
2018-12-21T06:38:31.201Z,38.22
2018-12-21T06:39:31.133Z,38.03
2018-12-21T06:40:31.111Z,37.93
2018-12-21T06:41:31.134Z,37.84
2018-12-21T06:42:31.068Z,37.74
2018-12-21T06:43:31.038Z,37.46
2018-12-21T06:44:31.046Z,37.55
2018-12-21T06:45:30.996Z,37.37
2018-12-21T06:46:30.975Z,37.37
2018-12-21T06:47:30.984Z,37.46
2018-12-21T06:48:30.923Z,37.37
2018-12-21T06:49:30.926Z,37.37
2018-12-21T06:50:30.884Z,37.27
2018-12-21T06:51:30.859Z,37.18
2018-12-21T06:52:30.865Z,37.18
2018-12-21T06:53:30.813Z,37.27
2018-12-21T06:54:30.835Z,37.27
2018-12-21T06:55:30.779Z,37.18
2018-12-21T06:56:30.786Z,37.27
2018-12-21T06:57:30.742Z,37.08
2018-12-21T06:58:30.710Z,36.98
2018-12-21T06:59:30.689Z,37.08
2018-12-21T07:00:30.661Z,36.89
2018-12-21T07:01:30.627Z,37.08
2018-12-21T07:02:30.657Z,37.08
2018-12-21T07:03:30.607Z,37.08
2018-12-21T07:04:30.568Z,37.18
2018-12-21T07:05:30.545Z,36.79
2018-12-21T07:06:30.521Z,36.79
2018-12-21T07:07:30.497Z,36.70
2018-12-21T07:08:30.473Z,36.79
2018-12-21T07:09:30.462Z,36.79
2018-12-21T07:10:30.430Z,37.18
2018-12-21T07:11:30.410Z,37.18
2018-12-21T07:12:30.391Z,36.70
2018-12-21T07:13:30.364Z,36.89
2018-12-21T07:14:30.336Z,36.70
2018-12-21T07:15:30.317Z,36.79
2018-12-21T07:16:30.305Z,36.79
2018-12-21T07:17:30.284Z,36.79
2018-12-21T07:18:30.251Z,36.79
2018-12-21T07:19:30.221Z,36.70
2018-12-21T07:20:30.214Z,36.79
2018-12-21T07:21:30.184Z,36.89
2018-12-21T07:22:30.161Z,36.89
2018-12-21T07:23:30.139Z,36.98
2018-12-21T07:24:30.127Z,36.98
2018-12-21T07:25:30.090Z,36.89
2018-12-21T07:26:30.072Z,36.51
2018-12-21T07:27:30.038Z,36.13
2018-12-21T07:28:30.033Z,36.22
2018-12-21T07:29:29.999Z,36.04
2018-12-21T07:30:29.981Z,36.22
2018-12-21T07:31:29.950Z,35.75
2018-12-21T07:32:29.942Z,36.13
2018-12-21T07:33:29.909Z,35.75
2018-12-21T07:34:29.886Z,36.04
2018-12-21T07:35:29.875Z,35.56
2018-12-21T07:36:29.845Z,35.94
2018-12-21T07:37:29.823Z,35.84
2018-12-21T07:38:29.795Z,35.27
2018-12-21T07:39:29.776Z,35.27
2018-12-21T07:40:29.755Z,35.46
2018-12-21T07:41:29.730Z,35.27
2018-12-21T07:42:29.709Z,35.17
2018-12-21T07:43:29.724Z,34.89
2018-12-21T07:44:29.675Z,34.99
2018-12-21T07:45:29.666Z,34.51
2018-12-21T07:46:29.619Z,34.89
2018-12-21T07:47:29.588Z,34.70
2018-12-21T07:48:29.573Z,34.61
2018-12-21T07:49:29.549Z,34.42
2018-12-21T07:50:29.527Z,34.51
2018-12-21T07:51:29.648Z,34.51
2018-12-21T07:52:29.582Z,34.23
2018-12-21T07:53:35.808Z,34.13
2018-12-21T07:54:29.830Z,34.03
2018-12-21T07:55:29.782Z,33.75
2018-12-21T07:56:29.394Z,33.75
2018-12-21T07:57:29.377Z,33.65
2018-12-21T07:58:29.341Z,33.75
2018-12-21T07:59:29.323Z,33.37
2018-12-21T08:00:29.298Z,33.47
2018-12-21T08:01:29.274Z,33.56
2018-12-21T08:02:29.258Z,33.28
2018-12-21T08:03:29.237Z,33.28
2018-12-21T08:04:30.312Z,32.90
2018-12-21T08:05:29.188Z,32.99
2018-12-21T08:06:29.159Z,32.99
2018-12-21T08:07:29.143Z,32.99
2018-12-21T08:08:29.121Z,32.90
2018-12-21T08:09:29.106Z,32.90
2018-12-21T08:10:29.075Z,32.51
2018-12-21T08:11:29.051Z,32.82
2018-12-21T08:12:29.037Z,32.34
2018-12-21T08:13:29.008Z,32.43
2018-12-21T08:14:29.011Z,32.34
2018-12-21T08:15:28.958Z,32.24
2018-12-21T08:16:28.940Z,32.43
2018-12-21T08:17:28.957Z,32.43
2018-12-21T08:18:28.919Z,32.24
2018-12-21T08:19:28.888Z,31.96
2018-12-21T08:20:28.869Z,32.15
2018-12-21T08:21:28.823Z,32.06
2018-12-21T08:22:28.803Z,32.06
2018-12-21T08:23:28.782Z,31.68
2018-12-21T08:24:28.760Z,31.87
2018-12-21T08:25:28.734Z,31.48
2018-12-21T08:26:28.707Z,31.58
2018-12-21T08:27:28.694Z,32.06
2018-12-21T08:28:28.668Z,31.58
2018-12-21T08:29:28.646Z,31.68
2018-12-21T08:30:28.661Z,31.29
2018-12-21T08:31:28.608Z,31.77
2018-12-21T08:32:28.580Z,31.01
2018-12-21T08:33:28.573Z,31.39
2018-12-21T08:34:28.530Z,31.20
2018-12-21T08:35:28.507Z,30.73
2018-12-21T08:36:28.486Z,30.73
2018-12-21T08:37:28.477Z,30.91
2018-12-21T08:38:28.442Z,31.01
2018-12-21T08:39:28.432Z,31.01
2018-12-21T08:40:28.411Z,30.91
2018-12-21T08:41:28.381Z,30.63
2018-12-21T08:42:28.368Z,30.54
2018-12-21T08:43:28.330Z,30.63
2018-12-21T08:44:28.315Z,30.63
2018-12-21T08:45:28.333Z,30.25
2018-12-21T08:46:28.296Z,30.25
2018-12-21T08:47:28.252Z,29.96
2018-12-21T08:48:28.249Z,29.58
2018-12-21T08:49:28.199Z,29.86
2018-12-21T08:50:28.174Z,29.68
2018-12-21T08:51:28.172Z,29.96
2018-12-21T08:52:28.138Z,29.86
2018-12-21T08:53:28.128Z,29.86
2018-12-21T08:54:28.087Z,29.86
2018-12-21T08:55:28.063Z,29.77
2018-12-21T08:56:28.059Z,29.01
2018-12-21T08:57:28.018Z,28.82
2018-12-21T08:58:27.998Z,28.72
2018-12-21T08:59:27.991Z,29.11
2018-12-21T09:00:27.964Z,28.44
2018-12-21T09:01:27.933Z,28.72
2018-12-21T09:02:27.920Z,28.82
2018-12-21T09:03:27.892Z,28.53
2018-12-21T09:04:32.170Z,28.25
2018-12-21T09:05:27.841Z,28.53
2018-12-21T09:06:27.839Z,28.63
2018-12-21T09:07:27.792Z,28.16
2018-12-21T09:08:27.802Z,28.25
2018-12-21T09:09:27.799Z,27.97
2018-12-21T09:10:27.750Z,27.97
2018-12-21T09:11:27.784Z,28.06
2018-12-21T09:12:27.685Z,27.78
2018-12-21T09:13:27.658Z,27.58
2018-12-21T09:14:27.641Z,27.58
2018-12-21T09:15:27.615Z,27.20
2018-12-21T09:16:27.595Z,27.30
2018-12-21T09:17:27.571Z,27.11
2018-12-21T09:18:27.550Z,26.82
2018-12-21T09:19:27.620Z,27.03
2018-12-21T09:20:27.525Z,26.65
2018-12-21T09:21:27.531Z,26.84
2018-12-21T09:22:27.471Z,26.73
2018-12-21T09:23:27.450Z,26.65
2018-12-21T09:24:27.416Z,26.55
2018-12-21T09:25:27.401Z,26.36
2018-12-21T09:26:27.375Z,26.36
2018-12-21T09:27:27.365Z,26.46
2018-12-21T09:28:27.328Z,26.46
2018-12-21T09:29:27.331Z,26.07
2018-12-21T09:30:27.292Z,26.26
2018-12-21T09:31:27.273Z,25.98
2018-12-21T09:32:27.239Z,26.07
2018-12-21T09:33:27.217Z,25.98
2018-12-21T09:34:27.202Z,26.07
2018-12-21T09:35:27.322Z,25.98
2018-12-21T09:36:27.161Z,25.89
2018-12-21T09:37:27.141Z,25.41
2018-12-21T09:38:27.169Z,25.60
2018-12-21T09:39:27.088Z,25.22
2018-12-21T09:40:27.064Z,25.51
2018-12-21T09:41:27.071Z,25.70
2018-12-21T09:42:27.056Z,25.41
2018-12-21T09:43:26.997Z,25.31
2018-12-21T09:44:26.976Z,25.22
2018-12-21T09:45:26.958Z,25.51
2018-12-21T09:46:26.938Z,25.12
2018-12-21T09:47:26.921Z,24.93
2018-12-21T09:48:26.925Z,24.65
2018-12-21T09:49:26.864Z,24.37
2018-12-21T09:50:26.853Z,24.74
2018-12-21T09:51:26.844Z,24.93
2018-12-21T09:52:26.832Z,24.37
2018-12-21T09:53:26.793Z,24.46
2018-12-21T09:54:26.769Z,24.55
2018-12-21T09:55:26.785Z,24.46
2018-12-21T09:56:26.717Z,24.46
2018-12-21T09:57:26.689Z,24.27
2018-12-21T09:58:26.695Z,24.37
2018-12-21T09:59:26.646Z,24.17
2018-12-21T10:00:26.643Z,23.69
2018-12-21T10:01:26.626Z,23.69
2018-12-21T10:02:26.579Z,23.79
2018-12-21T10:03:26.567Z,23.89
2018-12-21T10:04:26.539Z,23.98
2018-12-21T10:05:26.744Z,24.08
2018-12-21T10:06:26.549Z,23.98
2018-12-21T10:07:27.693Z,23.69
2018-12-21T10:08:26.450Z,23.71
2018-12-21T10:09:26.507Z,23.32
2018-12-21T10:10:26.443Z,23.52
2018-12-21T10:11:26.380Z,23.23
2018-12-21T10:12:26.377Z,23.04
2018-12-21T10:13:26.346Z,22.94
2018-12-21T10:14:26.711Z,23.14
2018-12-21T10:15:26.298Z,22.85
2018-12-21T10:16:26.284Z,23.04
2018-12-21T10:17:26.294Z,22.56
2018-12-21T10:18:26.283Z,22.38
2018-12-21T10:19:26.234Z,22.28
2018-12-21T10:20:26.333Z,22.28
2018-12-21T10:21:26.184Z,22.47
2018-12-21T10:22:26.166Z,22.19
2018-12-21T10:23:26.123Z,21.99
2018-12-21T10:24:26.230Z,21.99
2018-12-21T10:25:26.107Z,21.99
2018-12-21T10:26:26.103Z,21.80
2018-12-21T10:27:26.050Z,21.99
2018-12-21T10:28:26.029Z,21.90
2018-12-21T10:29:26.729Z,21.61
2018-12-21T10:30:25.999Z,21.71
2018-12-21T10:31:25.953Z,21.51
2018-12-21T10:32:25.928Z,21.51
2018-12-21T10:33:25.950Z,21.42
2018-12-21T10:34:25.892Z,21.33
2018-12-21T10:35:25.899Z,21.33
2018-12-21T10:36:25.848Z,21.42
2018-12-21T10:37:25.819Z,21.23
2018-12-21T10:38:25.797Z,21.23
2018-12-21T10:39:25.782Z,21.42
2018-12-21T10:40:25.755Z,21.23
2018-12-21T10:41:25.735Z,20.95
2018-12-21T10:42:26.814Z,21.23
2018-12-21T10:43:25.688Z,20.85
2018-12-21T10:44:25.690Z,20.95
2018-12-21T10:45:25.661Z,20.85
2018-12-21T10:46:25.692Z,20.76
2018-12-21T10:47:25.642Z,20.76
2018-12-21T10:49:48.625Z,20.37
2018-12-21T10:50:48.587Z,20.48
2018-12-21T10:51:48.586Z,20.57
2018-12-21T10:52:48.610Z,20.20
2018-12-21T10:53:48.514Z,20.10
2018-12-21T10:54:48.535Z,20.20
2018-12-21T10:55:48.531Z,20.29
2018-12-21T10:56:48.471Z,20.00
2018-12-21T10:57:48.496Z,19.81
2018-12-21T10:58:49.877Z,19.62
2018-12-21T10:59:48.391Z,19.81
2018-12-21T11:00:48.368Z,19.24
2018-12-21T11:01:48.376Z,19.53
2018-12-21T11:02:48.348Z,19.15
2018-12-21T11:03:48.336Z,19.06
2018-12-21T11:04:48.288Z,19.05
2018-12-21T11:05:48.296Z,18.87
2018-12-21T11:06:48.266Z,18.77
2018-12-21T11:07:48.217Z,18.40
2018-12-21T11:08:48.203Z,18.40
2018-12-21T11:09:48.181Z,18.40
2018-12-21T11:10:48.190Z,18.11
2018-12-21T11:11:48.136Z,18.11
2018-12-21T11:12:48.119Z,18.49
2018-12-21T11:13:48.113Z,18.30
2018-12-21T11:14:48.082Z,17.92
2018-12-21T11:15:48.049Z,18.01
2018-12-21T11:16:48.032Z,17.92
2018-12-21T11:17:48.015Z,17.82
2018-12-21T11:18:48.021Z,17.72
2018-12-21T11:19:47.959Z,17.82
2018-12-21T11:20:48.031Z,17.54
2018-12-21T11:21:47.921Z,17.54
2018-12-21T11:22:47.902Z,17.35
2018-12-21T11:23:47.904Z,17.44
2018-12-21T11:24:47.864Z,17.26
2018-12-21T11:25:47.843Z,16.88
2018-12-21T11:26:47.816Z,16.59
2018-12-21T11:27:47.792Z,16.78
2018-12-21T11:28:47.845Z,16.78
2018-12-21T11:29:49.567Z,16.69
2018-12-21T11:30:47.752Z,16.50
2018-12-21T11:31:47.716Z,16.50
2018-12-21T11:32:47.712Z,16.40
2018-12-21T11:33:47.667Z,16.30
2018-12-21T11:34:47.659Z,16.11
2018-12-21T11:35:47.643Z,15.83
2018-12-21T11:36:47.605Z,15.54
2018-12-21T11:37:47.600Z,15.83
2018-12-21T11:38:47.684Z,15.73
2018-12-21T11:39:47.542Z,15.45
2018-12-21T11:40:47.522Z,15.35
2018-12-21T11:41:47.509Z,15.07
2018-12-21T11:42:47.508Z,15.26
2018-12-21T11:43:47.484Z,15.17
2018-12-21T11:44:47.465Z,14.98
2018-12-21T11:45:47.467Z,14.22
2018-12-21T11:46:47.409Z,14.40
2018-12-21T11:47:47.380Z,14.31
2018-12-21T11:48:47.387Z,14.22
2018-12-21T11:49:47.337Z,13.93
2018-12-21T11:50:47.315Z,13.83
2018-12-21T11:51:47.287Z,13.35
2018-12-21T11:52:47.285Z,13.45
2018-12-21T11:53:47.265Z,13.17
2018-12-21T11:54:47.234Z,12.88
2018-12-21T11:55:47.223Z,12.59
2018-12-21T11:56:47.239Z,12.49
2018-12-21T11:57:47.188Z,12.12
2018-12-21T11:58:47.152Z,12.02
2018-12-21T11:59:47.225Z,12.02
2018-12-21T12:00:47.102Z,11.35
2018-12-21T12:01:47.092Z,11.44
2018-12-21T12:02:47.133Z,11.64
2018-12-21T12:03:47.041Z,10.88
2018-12-21T12:04:47.054Z,10.97
2018-12-21T12:05:47.006Z,10.78
2018-12-21T12:06:46.982Z,10.97
2018-12-21T12:07:46.978Z,10.21
2018-12-21T12:08:46.966Z,10.21
2018-12-21T12:09:46.963Z,9.92
2018-12-21T12:10:46.930Z,9.92
2018-12-21T12:11:46.889Z,9.92
2018-12-21T12:12:46.896Z,9.45
2018-12-21T12:13:46.839Z,9.26
2018-12-21T12:14:46.821Z,9.55
2018-12-21T12:15:46.806Z,9.06
2018-12-21T12:16:46.778Z,9.06
2018-12-21T12:17:46.751Z,8.78
2018-12-21T12:18:46.768Z,8.59
2018-12-21T12:19:46.736Z,8.50
2018-12-21T12:20:46.746Z,8.50
2018-12-21T12:21:46.715Z,8.59
2018-12-21T12:22:46.658Z,8.59
2018-12-21T12:23:46.627Z,8.97
2018-12-21T12:24:52.767Z,8.97
2018-12-21T12:25:46.604Z,9.16
2018-12-21T12:26:46.607Z,9.16
2018-12-21T12:27:46.619Z,9.16
2018-12-21T12:28:46.583Z,9.06
2018-12-21T12:29:46.523Z,9.16
2018-12-21T12:30:46.485Z,8.87
2018-12-21T12:31:46.478Z,9.74
2018-12-21T12:32:46.470Z,9.55
2018-12-21T12:33:46.423Z,10.02
2018-12-21T12:34:46.413Z,9.92
2018-12-21T12:35:46.382Z,9.92
2018-12-21T12:36:46.369Z,10.02
2018-12-21T12:37:46.358Z,10.40
2018-12-21T12:38:46.325Z,10.31
2018-12-21T12:39:46.304Z,10.88
2018-12-21T12:40:46.285Z,11.16
2018-12-21T12:41:46.268Z,11.55
2018-12-21T12:42:46.246Z,11.94
2018-12-21T12:43:46.247Z,12.41
2018-12-21T12:44:46.226Z,12.70
2018-12-21T12:45:46.211Z,13.18
2018-12-21T12:46:46.168Z,13.46
2018-12-21T12:47:46.151Z,14.13
2018-12-21T12:48:46.116Z,15.09
2018-12-21T12:49:46.098Z,15.56
2018-12-21T12:50:46.088Z,16.90
2018-12-21T12:51:46.059Z,17.86
2018-12-21T12:52:46.037Z,18.33
2018-12-21T12:53:46.018Z,20.34
2018-12-21T12:54:45.996Z,22.44